TAP109 LPPT-SBFL
Flight info
| Callsign | TAP109 |
|---|---|
| Flight time | N/A |
| Altitude | 35000 |
| Route | BEVOP DCT BAROK/N0472F370 UN873 SAMAR N873 ODEGI/N0476F380 N873 IPERA UN873 SADBA/N0471F400 UN873 NTL DCT ASGIK UZ21 VUNOX UZ92 PUBIS |
| Aircraft | A332/H-SDE3GHIJ2J3J5M1RVWXY/LB2D1 |
Departure
| Time | N/A |
|---|---|
| Airport | Lisbon Humberto Delgado Airport (LPPT) |
Arrival
| Time | 2026-04-29 23:13 |
|---|---|
| Airport | Hercílio Luz International Airport (SBFL) |
| Time | Latitude | Longitude | Altitude | Speed | Heading |
|---|---|---|---|---|---|
| 2026-04-29 22:00 | -13.05399 | -39.02907 | 39018 ft | 465 kts | 214° |
| 2026-04-29 22:00 | -13.26415 | -39.18510 | 39024 ft | 468 kts | 214° |
| 2026-04-29 22:01 | -13.47346 | -39.34088 | 39027 ft | 469 kts | 214° |
| 2026-04-29 22:01 | -13.68438 | -39.49899 | 39046 ft | 470 kts | 214° |
| 2026-04-29 22:02 | -13.89637 | -39.65821 | 39041 ft | 470 kts | 214° |
| 2026-04-29 22:02 | -14.10800 | -39.81753 | 39039 ft | 471 kts | 214° |
| 2026-04-29 22:03 | -14.31827 | -39.97619 | 39050 ft | 472 kts | 214° |
| 2026-04-29 22:03 | -14.53008 | -40.13638 | 39062 ft | 472 kts | 214° |
| 2026-04-29 22:04 | -14.74155 | -40.29675 | 39066 ft | 472 kts | 214° |
| 2026-04-29 22:04 | -14.95347 | -40.45786 | 39061 ft | 472 kts | 215° |
| 2026-04-29 22:05 | -15.16284 | -40.61743 | 39057 ft | 469 kts | 215° |
| 2026-04-29 22:06 | -15.47692 | -40.85755 | 39066 ft | 465 kts | 215° |
| 2026-04-29 22:06 | -15.68400 | -41.01639 | 39064 ft | 464 kts | 215° |
| 2026-04-29 22:07 | -15.89151 | -41.17596 | 39070 ft | 464 kts | 215° |
| 2026-04-29 22:07 | -16.09864 | -41.33563 | 39060 ft | 463 kts | 216° |
| 2026-04-29 22:08 | -16.30533 | -41.49537 | 39045 ft | 463 kts | 216° |
| 2026-04-29 22:08 | -16.51053 | -41.65438 | 39046 ft | 460 kts | 216° |
| 2026-04-29 22:09 | -16.71547 | -41.81362 | 39044 ft | 460 kts | 216° |
| 2026-04-29 22:09 | -16.92063 | -41.97347 | 39042 ft | 459 kts | 216° |
| 2026-04-29 22:10 | -17.12524 | -42.13343 | 39043 ft | 458 kts | 216° |
| 2026-04-29 22:10 | -17.32758 | -42.29204 | 39057 ft | 457 kts | 216° |
| 2026-04-29 22:11 | -17.53083 | -42.45183 | 39070 ft | 456 kts | 217° |
| 2026-04-29 22:11 | -17.73332 | -42.61148 | 39076 ft | 455 kts | 217° |
| 2026-04-29 22:12 | -17.93515 | -42.77106 | 39071 ft | 454 kts | 218° |
| 2026-04-29 22:12 | -18.13495 | -42.92950 | 39070 ft | 453 kts | 218° |
| 2026-04-29 22:13 | -18.33587 | -43.08931 | 39089 ft | 452 kts | 218° |
| 2026-04-29 22:13 | -18.53548 | -43.25028 | 39091 ft | 451 kts | 219° |
| 2026-04-29 22:14 | -18.73531 | -43.41066 | 39083 ft | 451 kts | 218° |
| 2026-04-29 22:14 | -18.93503 | -43.56842 | 39092 ft | 451 kts | 217° |
| 2026-04-29 22:15 | -19.13855 | -43.72439 | 39087 ft | 452 kts | 218° |
| 2026-04-29 22:15 | -19.34185 | -43.88110 | 39090 ft | 452 kts | 218° |
| 2026-04-29 22:16 | -19.54532 | -44.03844 | 39126 ft | 453 kts | 218° |
| 2026-04-29 22:16 | -19.74829 | -44.19451 | 39075 ft | 453 kts | 219° |
| 2026-04-29 22:17 | -19.95218 | -44.35243 | 39081 ft | 453 kts | 219° |
| 2026-04-29 22:17 | -20.15572 | -44.51052 | 39080 ft | 453 kts | 219° |
| 2026-04-29 22:18 | -20.35755 | -44.66763 | 39081 ft | 452 kts | 220° |
| 2026-04-29 22:18 | -20.56015 | -44.82582 | 39075 ft | 451 kts | 220° |
| 2026-04-29 22:19 | -20.76200 | -44.98377 | 39069 ft | 449 kts | 220° |
| 2026-04-29 22:19 | -20.96308 | -45.14205 | 39069 ft | 449 kts | 220° |
| 2026-04-29 22:20 | -21.16263 | -45.29949 | 39059 ft | 447 kts | 221° |
| 2026-04-29 22:20 | -21.36327 | -45.45836 | 39064 ft | 447 kts | 221° |
| 2026-04-29 22:21 | -21.56388 | -45.61715 | 39077 ft | 447 kts | 221° |
| 2026-04-29 22:21 | -21.76304 | -45.77372 | 39079 ft | 446 kts | 221° |
| 2026-04-29 22:22 | -21.96342 | -45.93190 | 39108 ft | 445 kts | 222° |
| 2026-04-29 22:22 | -22.16255 | -46.08963 | 39116 ft | 443 kts | 222° |
| 2026-04-29 22:23 | -22.34290 | -46.21733 | 39127 ft | 460 kts | 200° |
| 2026-04-29 22:23 | -22.47109 | -46.23780 | 39128 ft | 468 kts | 194° |
| 2026-04-29 22:24 | -22.59994 | -46.25755 | 39129 ft | 467 kts | 195° |
| 2026-04-29 22:24 | -22.72877 | -46.27792 | 39131 ft | 467 kts | 195° |
| 2026-04-29 22:25 | -22.85675 | -46.29820 | 39132 ft | 472 kts | 195° |
| 2026-04-29 22:25 | -22.98757 | -46.31892 | 39116 ft | 473 kts | 195° |
| 2026-04-29 22:26 | -23.11872 | -46.33976 | 39096 ft | 479 kts | 195° |
| 2026-04-29 22:26 | -23.25016 | -46.36064 | 39137 ft | 480 kts | 196° |
| 2026-04-29 22:27 | -23.38246 | -46.38196 | 39153 ft | 478 kts | 199° |
| 2026-04-29 22:27 | -23.44385 | -46.40490 | 39157 ft | 460 kts | 212° |
| 2026-04-29 22:27 | -23.50189 | -46.43399 | 39162 ft | 459 kts | 213° |
| 2026-04-29 22:28 | -23.61674 | -46.49350 | 39162 ft | 454 kts | 213° |
| 2026-04-29 22:28 | -23.73088 | -46.55252 | 39168 ft | 454 kts | 213° |
| 2026-04-29 22:29 | -23.83873 | -46.60830 | 39133 ft | 455 kts | 213° |
| 2026-04-29 22:29 | -23.89590 | -46.63790 | 39111 ft | 455 kts | 213° |
| 2026-04-29 22:30 | -23.95312 | -46.66757 | 39066 ft | 455 kts | 213° |
| 2026-04-29 22:30 | -24.01027 | -46.69725 | 39059 ft | 454 kts | 213° |
| 2026-04-29 22:31 | -24.06701 | -46.72673 | 39058 ft | 454 kts | 213° |
| 2026-04-29 22:31 | -24.12411 | -46.75642 | 39054 ft | 454 kts | 213° |
| 2026-04-29 22:32 | -24.18106 | -46.78606 | 39044 ft | 453 kts | 213° |
| 2026-04-29 22:32 | -24.23798 | -46.81573 | 39045 ft | 453 kts | 213° |
| 2026-04-29 22:33 | -24.29455 | -46.84524 | 39028 ft | 453 kts | 213° |
| 2026-04-29 22:33 | -24.35141 | -46.87492 | 39058 ft | 453 kts | 214° |
| 2026-04-29 22:34 | -24.40816 | -46.90455 | 39023 ft | 450 kts | 214° |
| 2026-04-29 22:34 | -24.46429 | -46.93390 | 39032 ft | 449 kts | 214° |
| 2026-04-29 22:35 | -24.52086 | -46.96356 | 39038 ft | 451 kts | 214° |
| 2026-04-29 22:35 | -24.57771 | -46.99340 | 39024 ft | 454 kts | 214° |
| 2026-04-29 22:36 | -24.63235 | -47.02690 | 39032 ft | 447 kts | 220° |
| 2026-04-29 22:36 | -24.68451 | -47.06314 | 39023 ft | 446 kts | 221° |
| 2026-04-29 22:37 | -24.73665 | -47.10023 | 39028 ft | 446 kts | 221° |
| 2026-04-29 22:37 | -24.78873 | -47.13739 | 39023 ft | 446 kts | 221° |
| 2026-04-29 22:38 | -24.84053 | -47.17426 | 39021 ft | 446 kts | 221° |
| 2026-04-29 22:38 | -24.89271 | -47.21137 | 39025 ft | 446 kts | 221° |
| 2026-04-29 22:39 | -24.94470 | -47.24838 | 39049 ft | 445 kts | 222° |
| 2026-04-29 22:39 | -24.99652 | -47.28526 | 39025 ft | 441 kts | 222° |
| 2026-04-29 22:40 | -25.04752 | -47.32163 | 39030 ft | 439 kts | 222° |
| 2026-04-29 22:40 | -25.09881 | -47.35829 | 39026 ft | 439 kts | 222° |
| 2026-04-29 22:41 | -25.15007 | -47.39494 | 38492 ft | 437 kts | 222° |
| 2026-04-29 22:41 | -25.17551 | -47.41313 | 37918 ft | 436 kts | 222° |
| 2026-04-29 22:41 | -25.20096 | -47.43135 | 37248 ft | 437 kts | 222° |
| 2026-04-29 22:41 | -25.22615 | -47.44942 | 36697 ft | 438 kts | 222° |
| 2026-04-29 22:42 | -25.25182 | -47.46787 | 36465 ft | 444 kts | 222° |
| 2026-04-29 22:42 | -25.27788 | -47.48664 | 36221 ft | 448 kts | 222° |
| 2026-04-29 22:42 | -25.30410 | -47.50548 | 35978 ft | 450 kts | 222° |
| 2026-04-29 22:42 | -25.33039 | -47.52436 | 35728 ft | 451 kts | 222° |
| 2026-04-29 22:43 | -25.35674 | -47.54328 | 35500 ft | 452 kts | 221° |
| 2026-04-29 22:43 | -25.38319 | -47.56228 | 35261 ft | 454 kts | 221° |
| 2026-04-29 22:43 | -25.40974 | -47.58136 | 34871 ft | 455 kts | 221° |
| 2026-04-29 22:43 | -25.43632 | -47.60049 | 34244 ft | 457 kts | 221° |
| 2026-04-29 22:44 | -25.46264 | -47.61942 | 33575 ft | 456 kts | 221° |
| 2026-04-29 22:44 | -25.48926 | -47.63859 | 32832 ft | 456 kts | 221° |
| 2026-04-29 22:44 | -25.51585 | -47.65775 | 32047 ft | 457 kts | 221° |
| 2026-04-29 22:44 | -25.54255 | -47.67702 | 31238 ft | 458 kts | 221° |
| 2026-04-29 22:45 | -25.56932 | -47.69634 | 30715 ft | 461 kts | 221° |
| 2026-04-29 22:45 | -25.59626 | -47.71581 | 30484 ft | 465 kts | 220° |
| 2026-04-29 22:45 | -25.62341 | -47.73542 | 30248 ft | 464 kts | 220° |
| 2026-04-29 22:45 | -25.65010 | -47.75469 | 30018 ft | 462 kts | 220° |
| 2026-04-29 22:46 | -25.67701 | -47.77414 | 29744 ft | 461 kts | 220° |
| 2026-04-29 22:46 | -25.70382 | -47.79353 | 29483 ft | 459 kts | 220° |
| 2026-04-29 22:46 | -25.73048 | -47.81283 | 29114 ft | 457 kts | 220° |
| 2026-04-29 22:46 | -25.75712 | -47.83213 | 28342 ft | 455 kts | 219° |
| 2026-04-29 22:47 | -25.78341 | -47.85116 | 27843 ft | 449 kts | 219° |
| 2026-04-29 22:47 | -25.80945 | -47.87004 | 27402 ft | 446 kts | 219° |
| 2026-04-29 22:47 | -25.83543 | -47.88890 | 26967 ft | 444 kts | 219° |
| 2026-04-29 22:47 | -25.86121 | -47.90763 | 26504 ft | 442 kts | 219° |
| 2026-04-29 22:48 | -25.88653 | -47.92603 | 26108 ft | 442 kts | 219° |
| 2026-04-29 22:48 | -25.91233 | -47.94480 | 25682 ft | 444 kts | 219° |
| 2026-04-29 22:48 | -25.93821 | -47.96363 | 25267 ft | 444 kts | 219° |
| 2026-04-29 22:48 | -25.96405 | -47.98243 | 24850 ft | 443 kts | 219° |
| 2026-04-29 22:49 | -25.98982 | -48.00119 | 24453 ft | 442 kts | 219° |
| 2026-04-29 22:49 | -26.01560 | -48.01988 | 24071 ft | 441 kts | 217° |
| 2026-04-29 22:49 | -26.04265 | -48.03557 | 23660 ft | 447 kts | 207° |
| 2026-04-29 22:49 | -26.07195 | -48.04760 | 23213 ft | 449 kts | 203° |
| 2026-04-29 22:50 | -26.10155 | -48.05867 | 22746 ft | 448 kts | 202° |
| 2026-04-29 22:50 | -26.13103 | -48.06957 | 22288 ft | 446 kts | 202° |
| 2026-04-29 22:50 | -26.16037 | -48.08045 | 21850 ft | 442 kts | 204° |
| 2026-04-29 22:50 | -26.18935 | -48.09124 | 21409 ft | 436 kts | 204° |
| 2026-04-29 22:51 | -26.21786 | -48.10188 | 20978 ft | 429 kts | 205° |
| 2026-04-29 22:51 | -26.24609 | -48.11247 | 20527 ft | 425 kts | 205° |
| 2026-04-29 22:51 | -26.30138 | -48.13325 | 19691 ft | 418 kts | 205° |
| 2026-04-29 22:52 | -26.32884 | -48.14358 | 19281 ft | 415 kts | 205° |
| 2026-04-29 22:52 | -26.35606 | -48.15383 | 18868 ft | 412 kts | 205° |
| 2026-04-29 22:52 | -26.38311 | -48.16401 | 18474 ft | 408 kts | 205° |
| 2026-04-29 22:52 | -26.40988 | -48.17410 | 18032 ft | 405 kts | 205° |
| 2026-04-29 22:53 | -26.43649 | -48.18413 | 17566 ft | 402 kts | 206° |
| 2026-04-29 22:53 | -26.46286 | -48.19408 | 17117 ft | 398 kts | 206° |
| 2026-04-29 22:53 | -26.48900 | -48.20394 | 16664 ft | 395 kts | 206° |
| 2026-04-29 22:53 | -26.51487 | -48.21371 | 16230 ft | 391 kts | 206° |
| 2026-04-29 22:54 | -26.54015 | -48.22326 | 15793 ft | 387 kts | 205° |
| 2026-04-29 22:54 | -26.56556 | -48.23287 | 15369 ft | 384 kts | 205° |
| 2026-04-29 22:54 | -26.59076 | -48.24240 | 14954 ft | 381 kts | 205° |
| 2026-04-29 22:54 | -26.61575 | -48.25186 | 14514 ft | 378 kts | 205° |
| 2026-04-29 22:55 | -26.64053 | -48.26124 | 14112 ft | 374 kts | 205° |
| 2026-04-29 22:55 | -26.66506 | -48.27052 | 13680 ft | 370 kts | 205° |
| 2026-04-29 22:55 | -26.68904 | -48.27960 | 13232 ft | 367 kts | 204° |
| 2026-04-29 22:55 | -26.71311 | -48.28873 | 12764 ft | 364 kts | 204° |
| 2026-04-29 22:56 | -26.73699 | -48.29779 | 12358 ft | 361 kts | 204° |
| 2026-04-29 22:56 | -26.76072 | -48.30680 | 12035 ft | 358 kts | 204° |
| 2026-04-29 22:56 | -26.78429 | -48.31575 | 11363 ft | 357 kts | 203° |
| 2026-04-29 22:56 | -26.80765 | -48.32462 | 10794 ft | 352 kts | 203° |
| 2026-04-29 22:57 | -26.83070 | -48.33337 | 10517 ft | 349 kts | 203° |
| 2026-04-29 22:57 | -26.85378 | -48.34215 | 10281 ft | 350 kts | 202° |
| 2026-04-29 22:57 | -26.87652 | -48.35081 | 10047 ft | 349 kts | 202° |
| 2026-04-29 22:57 | -26.89924 | -48.35944 | 9815 ft | 338 kts | 202° |
| 2026-04-29 22:58 | -26.92099 | -48.36795 | 9549 ft | 323 kts | 206° |
| 2026-04-29 22:58 | -26.94073 | -48.37864 | 9285 ft | 307 kts | 212° |
| 2026-04-29 22:58 | -26.95871 | -48.38988 | 9122 ft | 284 kts | 214° |
| 2026-04-29 22:58 | -26.97555 | -48.40069 | 8993 ft | 278 kts | 214° |
| 2026-04-29 22:59 | -26.99216 | -48.41143 | 8868 ft | 279 kts | 214° |
| 2026-04-29 22:59 | -27.00897 | -48.42228 | 8756 ft | 279 kts | 214° |
| 2026-04-29 22:59 | -27.02577 | -48.43308 | 8598 ft | 278 kts | 214° |
| 2026-04-29 22:59 | -27.04253 | -48.44385 | 8353 ft | 277 kts | 214° |
| 2026-04-29 23:00 | -27.05920 | -48.45455 | 8133 ft | 277 kts | 214° |
| 2026-04-29 23:00 | -27.07599 | -48.46533 | 8031 ft | 277 kts | 214° |
| 2026-04-29 23:00 | -27.08905 | -48.47371 | 8026 ft | 277 kts | 214° |
| 2026-04-29 23:00 | -27.10582 | -48.48447 | 8028 ft | 277 kts | 214° |
| 2026-04-29 23:01 | -27.12233 | -48.49507 | 8031 ft | 277 kts | 214° |
| 2026-04-29 23:01 | -27.13909 | -48.50583 | 8032 ft | 277 kts | 214° |
| 2026-04-29 23:01 | -27.15585 | -48.51660 | 8032 ft | 277 kts | 214° |
| 2026-04-29 23:01 | -27.17258 | -48.52735 | 8034 ft | 277 kts | 214° |
| 2026-04-29 23:02 | -27.18930 | -48.53811 | 8040 ft | 277 kts | 214° |
| 2026-04-29 23:02 | -27.20605 | -48.54885 | 8041 ft | 277 kts | 213° |
| 2026-04-29 23:02 | -27.22374 | -48.55779 | 8042 ft | 280 kts | 204° |
| 2026-04-29 23:02 | -27.24204 | -48.56470 | 7787 ft | 283 kts | 201° |
| 2026-04-29 23:03 | -27.26076 | -48.57127 | 7513 ft | 278 kts | 201° |
| 2026-04-29 23:03 | -27.27921 | -48.57768 | 7328 ft | 278 kts | 201° |
| 2026-04-29 23:03 | -27.29760 | -48.58412 | 7172 ft | 274 kts | 201° |
| 2026-04-29 23:03 | -27.31548 | -48.59038 | 7044 ft | 264 kts | 201° |
| 2026-04-29 23:04 | -27.33266 | -48.59641 | 6915 ft | 254 kts | 201° |
| 2026-04-29 23:04 | -27.34911 | -48.60223 | 6826 ft | 242 kts | 201° |
| 2026-04-29 23:04 | -27.36478 | -48.60775 | 6705 ft | 229 kts | 201° |
| 2026-04-29 23:04 | -27.37956 | -48.61297 | 6487 ft | 223 kts | 202° |
| 2026-04-29 23:05 | -27.39431 | -48.61821 | 6195 ft | 220 kts | 201° |
| 2026-04-29 23:05 | -27.40888 | -48.62340 | 5841 ft | 220 kts | 201° |
| 2026-04-29 23:05 | -27.42347 | -48.62860 | 5625 ft | 221 kts | 201° |
| 2026-04-29 23:05 | -27.43813 | -48.63377 | 5546 ft | 219 kts | 201° |
| 2026-04-29 23:06 | -27.45269 | -48.63891 | 5441 ft | 219 kts | 201° |
| 2026-04-29 23:06 | -27.46724 | -48.64410 | 5283 ft | 220 kts | 201° |
| 2026-04-29 23:06 | -27.48168 | -48.64924 | 5139 ft | 221 kts | 201° |
| 2026-04-29 23:06 | -27.49587 | -48.65552 | 4905 ft | 218 kts | 210° |
| 2026-04-29 23:07 | -27.50901 | -48.66380 | 4624 ft | 212 kts | 213° |
| 2026-04-29 23:07 | -27.52129 | -48.67209 | 4565 ft | 199 kts | 212° |
| 2026-04-29 23:07 | -27.53301 | -48.67971 | 4124 ft | 195 kts | 210° |
| 2026-04-29 23:07 | -27.54480 | -48.68747 | 3839 ft | 195 kts | 214° |
| 2026-04-29 23:08 | -27.55627 | -48.69479 | 3584 ft | 190 kts | 205° |
| 2026-04-29 23:08 | -27.56886 | -48.69810 | 3372 ft | 181 kts | 183° |
| 2026-04-29 23:08 | -27.58077 | -48.69569 | 3272 ft | 168 kts | 160° |
| 2026-04-29 23:08 | -27.59033 | -48.68903 | 3098 ft | 158 kts | 139° |
| 2026-04-29 23:09 | -27.59720 | -48.67958 | 2849 ft | 154 kts | 124° |
| 2026-04-29 23:09 | -27.60277 | -48.66943 | 2573 ft | 151 kts | 121° |
| 2026-04-29 23:09 | -27.60804 | -48.65940 | 2283 ft | 150 kts | 121° |
| 2026-04-29 23:09 | -27.61322 | -48.64927 | 2011 ft | 148 kts | 118° |
| 2026-04-29 23:10 | -27.61836 | -48.63926 | 1789 ft | 144 kts | 122° |
| 2026-04-29 23:10 | -27.62343 | -48.63002 | 1597 ft | 134 kts | 122° |
| 2026-04-29 23:10 | -27.62820 | -48.62106 | 1419 ft | 133 kts | 122° |
| 2026-04-29 23:10 | -27.63297 | -48.61212 | 1254 ft | 132 kts | 122° |
| 2026-04-29 23:11 | -27.63765 | -48.60340 | 1072 ft | 131 kts | 122° |
| 2026-04-29 23:11 | -27.64241 | -48.59466 | 920 ft | 130 kts | 122° |
| 2026-04-29 23:11 | -27.64715 | -48.58598 | 760 ft | 129 kts | 121° |
| 2026-04-29 23:11 | -27.65138 | -48.57704 | 612 ft | 129 kts | 121° |
| 2026-04-29 23:12 | -27.65613 | -48.56843 | 416 ft | 130 kts | 122° |
| 2026-04-29 23:12 | -27.66086 | -48.55985 | 244 ft | 128 kts | 124° |
| 2026-04-29 23:12 | -27.66557 | -48.55131 | 69 ft | 128 kts | 124° |
| 2026-04-29 23:12 | -27.66991 | -48.54342 | 29 ft | 99 kts | 121° |
| 2026-04-29 23:13 | -27.67207 | -48.53940 | 30 ft | 33 kts | 121° |
| 2026-04-29 23:13 | -27.67324 | -48.53722 | 30 ft | 32 kts | 121° |
| 2026-04-29 23:13 | -27.67437 | -48.53512 | 26 ft | 31 kts | 121° |
| 2026-04-29 23:13 | -27.67546 | -48.53308 | 29 ft | 30 kts | 121° |
| 2026-04-29 23:14 | -27.67646 | -48.53119 | 29 ft | 12 kts | 121° |
| 2026-04-29 23:14 | -27.67697 | -48.53069 | 29 ft | 9 kts | 168° |
| 2026-04-29 23:14 | -27.67754 | -48.53097 | 28 ft | 10 kts | 213° |
| 2026-04-29 23:14 | -27.67807 | -48.53147 | 28 ft | 10 kts | 245° |
| 2026-04-29 23:15 | -27.67789 | -48.53215 | 28 ft | 10 kts | 302° |
| 2026-04-29 23:15 | -27.67774 | -48.53244 | 28 ft | 11 kts | 302° |
| 2026-04-29 23:15 | -27.67724 | -48.53337 | 28 ft | 20 kts | 301° |
| 2026-04-29 23:15 | -27.67630 | -48.53511 | 28 ft | 29 kts | 301° |
| 2026-04-29 23:16 | -27.67526 | -48.53708 | 28 ft | 29 kts | 302° |
| 2026-04-29 23:16 | -27.67420 | -48.53904 | 28 ft | 30 kts | 301° |
| 2026-04-29 23:16 | -27.67312 | -48.54108 | 28 ft | 30 kts | 302° |
| 2026-04-29 23:16 | -27.67201 | -48.54312 | 28 ft | 31 kts | 301° |
| 2026-04-29 23:17 | -27.67108 | -48.54488 | 28 ft | 16 kts | 301° |
| 2026-04-29 23:17 | -27.67070 | -48.54570 | 28 ft | 6 kts | 275° |
| 2026-04-29 23:17 | -27.67094 | -48.54601 | 28 ft | 7 kts | 211° |
| 2026-04-29 23:17 | -27.67122 | -48.54638 | 28 ft | 4 kts | 258° |
| 2026-04-29 23:18 | -27.67137 | -48.54665 | 28 ft | 5 kts | 209° |
| 2026-04-29 23:18 | -27.67176 | -48.54686 | 28 ft | 7 kts | 200° |
| 2026-04-29 23:18 | -27.67202 | -48.54693 | 28 ft | 0 kts | 193° |
| 2026-04-29 23:22 | -27.62032 | -48.63572 | 1707 ft | 140 kts | 122° |
| 2026-04-29 23:22 | -27.62584 | -48.62551 | 1498 ft | 133 kts | 122° |
| 2026-04-29 23:22 | -27.63074 | -48.61629 | 1329 ft | 133 kts | 122° |
| 2026-04-29 23:22 | -27.63530 | -48.60777 | 1163 ft | 132 kts | 122° |
| 2026-04-29 23:23 | -27.63998 | -48.59909 | 1002 ft | 131 kts | 122° |
| 2026-04-29 23:23 | -27.64458 | -48.59070 | 848 ft | 130 kts | 122° |
| 2026-04-29 23:23 | -27.64763 | -48.58505 | 742 ft | 129 kts | 120° |
| 2026-04-29 23:23 | -27.65345 | -48.57331 | 536 ft | 129 kts | 124° |
| 2026-04-29 23:24 | -27.65829 | -48.56445 | 344 ft | 129 kts | 122° |
| 2026-04-29 23:24 | -27.66141 | -48.55888 | 228 ft | 128 kts | 124° |
| 2026-04-29 23:24 | -27.66643 | -48.54976 | 42 ft | 128 kts | 124° |
| 2026-04-29 23:24 | -27.67051 | -48.54229 | 29 ft | 85 kts | 121° |
| 2026-04-29 23:25 | -27.62252 | -48.63170 | 1640 ft | 136 kts | 122° |
| 2026-04-29 23:25 | -27.62929 | -48.61901 | 1388 ft | 133 kts | 121° |
| 2026-04-29 23:25 | -27.63267 | -48.61268 | 1259 ft | 132 kts | 122° |
| 2026-04-29 23:25 | -27.63768 | -48.60335 | 1071 ft | 131 kts | 122° |
| 2026-04-29 23:26 | -27.64278 | -48.59398 | 910 ft | 130 kts | 122° |
| 2026-04-29 23:26 | -27.64778 | -48.58475 | 737 ft | 129 kts | 120° |
| 2026-04-29 23:26 | -27.65236 | -48.57522 | 573 ft | 129 kts | 123° |
| 2026-04-29 23:26 | -27.65745 | -48.56597 | 374 ft | 129 kts | 122° |
| 2026-04-29 23:27 | -27.66232 | -48.55725 | 199 ft | 128 kts | 123° |
| 2026-04-29 23:27 | -27.66745 | -48.54793 | 30 ft | 125 kts | 122° |
| 2026-04-29 23:27 | -27.67110 | -48.54119 | 27 ft | 67 kts | 121° |
| 2026-04-29 23:27 | -27.67252 | -48.53855 | 30 ft | 33 kts | 121° |
| 2026-04-29 23:28 | -27.65542 | -48.56975 | 458 ft | 130 kts | 122° |
| 2026-04-29 23:28 | -27.66026 | -48.56092 | 267 ft | 128 kts | 124° |
| 2026-04-29 23:28 | -27.66559 | -48.55128 | 69 ft | 128 kts | 124° |
| 2026-04-29 23:28 | -27.66995 | -48.54335 | 29 ft | 98 kts | 121° |
| 2026-04-29 23:29 | -27.64875 | -48.58275 | 655 ft | 129 kts | 118° |
| 2026-04-29 23:29 | -27.65738 | -48.56611 | 377 ft | 129 kts | 122° |
| 2026-04-29 23:29 | -27.66249 | -48.55694 | 183 ft | 128 kts | 123° |
| 2026-04-29 23:29 | -27.66749 | -48.54787 | 29 ft | 125 kts | 122° |
| 2026-04-29 23:30 | -27.65750 | -48.56589 | 372 ft | 134 kts | 122° |
| 2026-04-29 23:30 | -27.66063 | -48.56027 | 253 ft | 128 kts | 124° |
| 2026-04-29 23:31 | -27.66625 | -48.55008 | 47 ft | 128 kts | 124° |
| 2026-04-29 23:31 | -27.67024 | -48.54280 | 29 ft | 92 kts | 121° |
| 2026-04-29 23:31 | -27.67232 | -48.53894 | 28 ft | 33 kts | 121° |